createdAt,value
2018-09-14T00:00:37.196Z,7.80
2018-09-14T00:03:08.073Z,6.20
2018-09-14T00:05:38.071Z,7.00
2018-09-14T00:08:08.233Z,8.80
2018-09-14T00:10:37.883Z,6.00
2018-09-14T00:13:09.833Z,7.80
2018-09-14T00:15:40.862Z,7.40
2018-09-14T00:18:10.556Z,8.60
2018-09-14T00:20:40.550Z,7.00
2018-09-14T00:23:10.845Z,9.60
2018-09-14T00:25:41.010Z,7.80
2018-09-14T00:28:10.613Z,7.40
2018-09-14T00:30:40.418Z,7.40
2018-09-14T00:33:11.148Z,7.00
2018-09-14T00:35:41.944Z,5.20
2018-09-14T00:38:13.645Z,4.00
2018-09-14T00:40:44.654Z,6.40
2018-09-14T00:43:14.729Z,7.00
2018-09-14T00:45:46.337Z,5.20
2018-09-14T00:48:16.710Z,7.00
2018-09-14T00:50:46.294Z,6.00
2018-09-14T00:53:16.086Z,7.20
2018-09-14T00:55:47.563Z,9.00
2018-09-14T00:58:17.329Z,6.80
2018-09-14T01:00:47.318Z,6.60
2018-09-14T01:03:17.178Z,8.60
2018-09-14T01:05:47.522Z,7.40
2018-09-14T01:08:17.295Z,7.20
2018-09-14T01:10:47.045Z,9.00
2018-09-14T01:13:16.674Z,9.00
2018-09-14T01:15:46.445Z,9.00
2018-09-14T01:18:17.110Z,7.00
2018-09-14T01:20:46.753Z,7.00
2018-09-14T01:23:16.469Z,3.80
2018-09-14T01:25:46.556Z,8.60
2018-09-14T01:28:16.385Z,7.00
2018-09-14T01:30:49.735Z,8.20
2018-09-14T01:33:20.221Z,6.80
2018-09-14T01:35:55.325Z,7.00
2018-09-14T01:38:25.133Z,7.80
2018-09-14T01:40:55.012Z,2.20
2018-09-14T01:43:26.318Z,7.40
2018-09-14T01:45:56.070Z,7.40
2018-09-14T01:48:26.595Z,8.60
2018-09-14T01:50:57.820Z,7.00
2018-09-14T01:53:27.585Z,7.40
2018-09-14T01:55:57.401Z,3.60
2018-09-14T01:58:27.317Z,7.40
2018-09-14T02:00:57.988Z,7.80
2018-09-14T02:03:28.452Z,6.60
2018-09-14T02:05:58.664Z,7.00
2018-09-14T02:08:28.309Z,8.20
2018-09-14T02:11:00.481Z,6.80
2018-09-14T02:13:31.080Z,8.20
2018-09-14T02:16:00.828Z,6.80
2018-09-14T02:18:31.654Z,9.00
2018-09-14T02:21:01.482Z,7.00
2018-09-14T02:23:31.133Z,8.60
2018-09-14T02:26:00.929Z,8.60
2018-09-14T02:28:31.206Z,3.60
2018-09-14T02:31:00.832Z,9.00
2018-09-14T02:33:31.465Z,6.00
2018-09-14T02:36:01.144Z,7.40
2018-09-14T02:38:32.466Z,7.00
2018-09-14T02:41:02.313Z,9.00
2018-09-14T02:43:33.076Z,7.00
2018-09-14T02:46:03.670Z,7.60
2018-09-14T02:48:33.478Z,6.80
2018-09-14T02:51:04.107Z,4.80
2018-09-14T02:53:33.974Z,6.80
2018-09-14T02:56:04.444Z,9.00
2018-09-14T02:58:35.785Z,7.00
2018-09-14T03:01:05.542Z,7.00
2018-09-14T03:03:35.197Z,7.00
2018-09-14T03:06:06.393Z,6.60
2018-09-14T03:08:36.116Z,7.00
2018-09-14T03:11:07.231Z,7.00
2018-09-14T03:13:37.801Z,9.00
2018-09-14T03:16:07.474Z,6.00
2018-09-14T03:18:37.970Z,6.60
2018-09-14T03:21:07.713Z,7.80
2018-09-14T03:23:37.623Z,6.00
2018-09-14T03:26:07.445Z,6.00
2018-09-14T03:28:37.444Z,7.00
2018-09-14T03:31:09.077Z,7.00
2018-09-14T03:33:39.189Z,6.00
2018-09-14T03:36:10.978Z,7.20
2018-09-14T03:38:42.101Z,5.40
2018-09-14T03:41:12.888Z,7.00
2018-09-14T03:43:46.613Z,7.40
2018-09-14T03:46:19.318Z,7.00
2018-09-14T03:48:49.357Z,7.00
2018-09-14T03:51:19.799Z,6.80
2018-09-14T03:53:49.984Z,6.60
2018-09-14T03:56:20.415Z,9.20
2018-09-14T03:58:50.879Z,6.40
2018-09-14T04:01:20.937Z,7.00
2018-09-14T04:03:50.647Z,3.40
2018-09-14T04:06:20.309Z,7.40
2018-09-14T04:08:50.156Z,4.80
2018-09-14T04:11:21.031Z,6.80
2018-09-14T04:13:50.934Z,6.80
2018-09-14T04:16:21.076Z,6.60
2018-09-14T04:19:01.554Z,5.60
2018-09-14T04:21:32.565Z,6.60
2018-09-14T04:24:02.730Z,7.00
2018-09-14T04:26:32.603Z,9.00
2018-09-14T04:29:03.212Z,6.00
2018-09-14T04:31:33.327Z,7.40
2018-09-14T04:34:03.077Z,7.80
2018-09-14T04:36:32.809Z,5.60
2018-09-14T04:39:03.737Z,7.00
2018-09-14T04:41:34.127Z,6.00
2018-09-14T04:44:03.838Z,4.80
2018-09-14T04:46:33.702Z,7.00
2018-09-14T04:49:04.578Z,6.00
2018-09-14T04:51:34.767Z,6.00
2018-09-14T04:54:05.098Z,6.40
2018-09-14T04:56:34.917Z,7.00
2018-09-14T04:59:04.647Z,6.60
2018-09-14T05:01:34.289Z,6.40
2018-09-14T05:04:04.065Z,6.80
2018-09-14T05:06:34.160Z,6.00
2018-09-14T05:09:07.089Z,6.60
2018-09-14T05:11:37.473Z,6.20
2018-09-14T05:14:07.216Z,4.00
2018-09-14T05:16:36.933Z,6.80
2018-09-14T05:19:06.629Z,7.80
2018-09-14T05:21:37.459Z,6.40
2018-09-14T05:24:07.778Z,6.00
2018-09-14T05:26:39.203Z,6.00
2018-09-14T05:29:10.163Z,7.00
2018-09-14T05:31:40.610Z,6.20
2018-09-14T05:34:11.335Z,4.00
2018-09-14T05:36:41.514Z,7.80
2018-09-14T05:39:11.538Z,6.00
2018-09-14T05:41:42.545Z,6.00
2018-09-14T05:44:12.459Z,6.20
2018-09-14T05:46:42.130Z,6.20
2018-09-14T05:49:14.018Z,6.00
2018-09-14T05:51:43.823Z,6.60
2018-09-14T05:54:14.157Z,6.20
2018-09-14T05:56:43.825Z,5.20
2018-09-14T05:59:13.460Z,6.40
2018-09-14T06:01:43.193Z,4.40
2018-09-14T06:04:22.526Z,6.00
2018-09-14T06:06:53.621Z,4.80
2018-09-14T06:09:23.491Z,7.00
2018-09-14T06:11:53.925Z,8.00
2018-09-14T06:14:23.907Z,6.60
2018-09-14T06:16:53.893Z,5.60
2018-09-14T06:19:23.569Z,5.60
2018-09-14T06:21:53.452Z,6.80
2018-09-14T06:24:23.384Z,7.00
2018-09-14T06:26:54.836Z,5.60
2018-09-14T06:29:24.671Z,6.00
2018-09-14T06:31:54.474Z,6.00
2018-09-14T06:34:24.126Z,4.00
2018-09-14T06:36:53.950Z,6.00
2018-09-14T06:39:23.728Z,6.00
2018-09-14T06:41:53.332Z,6.40
2018-09-14T06:44:24.631Z,4.00
2018-09-14T06:46:54.409Z,7.00
2018-09-14T06:49:24.726Z,8.60
2018-09-14T06:51:54.498Z,7.40
2018-09-14T06:54:24.862Z,5.80
2018-09-14T06:56:57.188Z,6.60
2018-09-14T06:59:27.241Z,4.00
2018-09-14T07:01:57.153Z,6.00
2018-09-14T07:04:26.956Z,6.20
2018-09-14T07:07:00.314Z,6.00
2018-09-14T07:09:31.544Z,6.00
2018-09-14T07:12:04.020Z,6.20
2018-09-14T07:14:34.267Z,6.80
2018-09-14T07:17:04.200Z,3.00
2018-09-14T07:19:33.954Z,7.00
2018-09-14T07:22:03.744Z,6.40
2018-09-14T07:24:34.717Z,6.00
2018-09-14T07:27:04.746Z,6.00
2018-09-14T07:29:34.622Z,5.20
2018-09-14T07:32:06.121Z,5.20
2018-09-14T07:34:37.862Z,6.00
2018-09-14T07:37:07.963Z,3.00
2018-09-14T07:39:38.174Z,4.00
2018-09-14T07:42:08.195Z,6.00
2018-09-14T07:44:38.328Z,5.60
2018-09-14T07:47:09.804Z,7.00
2018-09-14T07:49:40.462Z,6.00
2018-09-14T07:52:10.638Z,4.40
2018-09-14T07:54:40.957Z,5.20
2018-09-14T07:57:11.330Z,4.00
2018-09-14T07:59:41.446Z,6.00
2018-09-14T08:02:11.613Z,6.60
2018-09-14T08:04:44.262Z,5.20
2018-09-14T08:07:15.537Z,6.40
2018-09-14T08:09:49.605Z,4.00
2018-09-14T08:12:19.441Z,6.00
2018-09-14T08:14:50.527Z,4.80
2018-09-14T08:17:20.905Z,6.00
2018-09-14T08:19:51.199Z,4.00
2018-09-14T08:22:22.577Z,6.00
2018-09-14T08:24:54.554Z,6.60
2018-09-14T08:27:24.769Z,4.40
2018-09-14T08:29:55.075Z,3.60
2018-09-14T08:32:25.790Z,6.00
2018-09-14T08:34:56.276Z,4.40
2018-09-14T08:37:27.844Z,6.00
2018-09-14T08:39:58.689Z,6.60
2018-09-14T08:42:30.001Z,4.00
2018-09-14T08:45:01.692Z,3.00
2018-09-14T08:47:32.747Z,7.00
2018-09-14T08:50:03.037Z,6.20
2018-09-14T08:52:32.900Z,3.00
2018-09-14T08:55:05.176Z,4.40
2018-09-14T08:57:46.106Z,5.80
2018-09-14T09:00:22.904Z,3.80
2018-09-14T09:02:56.477Z,6.00
2018-09-14T09:05:26.683Z,6.00
2018-09-14T09:07:57.092Z,4.80
2018-09-14T09:10:26.963Z,3.60
2018-09-14T09:12:57.441Z,6.00
2018-09-14T09:15:27.401Z,7.00
2018-09-14T09:18:06.165Z,5.60
2018-09-14T09:24:07.681Z,7.00
2018-09-14T09:26:37.981Z,6.20
2018-09-14T09:29:09.878Z,5.60
2018-09-14T09:31:39.604Z,7.00
2018-09-14T09:34:11.478Z,6.00
2018-09-14T09:36:41.303Z,4.00
2018-09-14T09:39:12.424Z,5.60
2018-09-14T09:41:42.768Z,6.00
2018-09-14T09:44:13.161Z,6.20
2018-09-14T09:46:43.021Z,4.00
2018-09-14T09:49:14.296Z,5.60
2018-09-14T09:51:43.997Z,6.00
2018-09-14T09:54:13.642Z,4.80
2018-09-14T09:56:43.469Z,6.80
2018-09-14T09:59:13.074Z,7.80
2018-09-14T10:01:48.329Z,7.00
2018-09-14T10:04:26.638Z,7.40
2018-09-14T10:06:57.557Z,9.60
2018-09-14T10:09:28.711Z,9.80
2018-09-14T10:12:00.084Z,5.60
2018-09-14T10:14:31.080Z,7.40
2018-09-14T10:17:05.742Z,7.00
2018-09-14T10:19:36.008Z,13.80
2018-09-14T10:22:06.029Z,14.60
2018-09-14T10:24:36.048Z,13.00
2018-09-14T10:27:06.105Z,17.60
2018-09-14T10:29:36.149Z,12.00
2018-09-14T10:32:05.882Z,12.20
2018-09-14T10:34:38.098Z,13.00
2018-09-14T10:37:09.959Z,12.40
2018-09-14T10:39:39.843Z,10.80
2018-09-14T10:42:09.458Z,9.20
2018-09-14T10:44:40.600Z,12.60
2018-09-14T10:47:11.315Z,11.40
2018-09-14T10:49:41.246Z,12.00
2018-09-14T10:52:12.641Z,12.40
2018-09-14T10:54:42.604Z,12.20
2018-09-14T10:57:13.357Z,6.20
2018-09-14T10:59:43.029Z,10.00
2018-09-14T11:02:13.322Z,12.40
2018-09-14T11:04:43.198Z,9.80
2018-09-14T11:07:14.036Z,10.00
2018-09-14T11:09:47.179Z,10.20
2018-09-14T11:12:17.362Z,9.60
2018-09-14T11:14:48.751Z,9.80
2018-09-14T11:17:18.486Z,9.60
2018-09-14T11:19:48.565Z,9.80
2018-09-14T11:22:19.193Z,10.80
2018-09-14T11:24:49.614Z,10.40
2018-09-14T11:27:20.082Z,9.00
2018-09-14T11:29:51.964Z,9.40
2018-09-14T11:32:22.132Z,7.40
2018-09-14T11:34:51.948Z,9.40
2018-09-14T11:37:21.999Z,9.80
2018-09-14T11:39:52.087Z,11.00
2018-09-14T11:42:22.306Z,7.00
2018-09-14T11:44:51.945Z,9.00
2018-09-14T11:47:23.954Z,8.20
2018-09-14T11:49:54.103Z,9.00
2018-09-14T11:52:25.780Z,8.60
2018-09-14T11:54:55.977Z,9.60
2018-09-14T11:57:28.701Z,7.00
2018-09-14T12:00:01.288Z,7.00
2018-09-14T12:02:32.186Z,10.00
2018-09-14T12:05:02.714Z,9.00
2018-09-14T12:07:37.544Z,7.00
2018-09-14T12:10:10.148Z,10.40
2018-09-14T12:12:40.509Z,8.60
2018-09-14T12:15:16.001Z,5.80
2018-09-14T12:17:47.243Z,7.00
2018-09-14T12:20:20.321Z,7.80
2018-09-14T12:22:53.434Z,6.60
2018-09-14T12:25:23.485Z,7.80
2018-09-14T12:27:54.249Z,7.40
2018-09-14T12:30:24.896Z,6.60
2018-09-14T12:32:54.744Z,6.80
2018-09-14T12:35:25.444Z,7.00
2018-09-14T12:37:56.364Z,6.00
2018-09-14T12:40:27.862Z,7.00
2018-09-14T12:42:57.462Z,7.80
2018-09-14T12:45:28.348Z,6.40
2018-09-14T12:47:58.626Z,4.80
2018-09-14T12:50:28.505Z,9.40
2018-09-14T12:55:34.831Z,8.20
2018-09-14T12:58:06.799Z,7.60
2018-09-14T13:00:36.709Z,7.00
2018-09-14T13:03:07.621Z,7.40
2018-09-14T13:05:37.771Z,9.00
2018-09-14T13:08:08.329Z,7.80
2018-09-14T13:10:39.327Z,9.00
2018-09-14T13:13:11.040Z,7.40
2018-09-14T13:15:41.384Z,6.80
2018-09-14T13:18:11.806Z,9.00
2018-09-14T13:20:43.029Z,7.80
2018-09-14T13:25:49.692Z,6.40
2018-09-14T13:28:19.910Z,7.40
2018-09-14T13:30:49.576Z,6.20
2018-09-14T13:33:19.067Z,6.80
2018-09-14T13:35:49.353Z,7.00
2018-09-14T13:38:19.077Z,7.00
2018-09-14T13:40:49.131Z,7.00
2018-09-14T13:43:22.171Z,7.40
2018-09-14T13:45:54.214Z,8.20
2018-09-14T13:48:25.246Z,6.60
2018-09-14T13:50:55.731Z,6.40
2018-09-14T13:53:26.353Z,8.20
2018-09-14T13:55:56.322Z,7.80
2018-09-14T13:58:26.124Z,6.80
2018-09-14T14:00:58.740Z,8.60
2018-09-14T14:03:28.992Z,8.60
2018-09-14T14:05:59.719Z,6.40
2018-09-14T14:08:29.593Z,6.80
2018-09-14T14:11:00.929Z,6.00
2018-09-14T14:13:30.658Z,7.40
2018-09-14T14:16:01.193Z,6.80
2018-09-14T14:18:30.808Z,6.00
2018-09-14T14:21:02.110Z,6.00
2018-09-14T14:23:31.748Z,7.00
2018-09-14T14:26:03.981Z,7.00
2018-09-14T14:28:34.480Z,7.80
2018-09-14T14:31:05.322Z,7.00
2018-09-14T14:33:35.436Z,6.00
2018-09-14T14:36:05.020Z,7.00
2018-09-14T14:41:10.142Z,9.20
2018-09-14T14:43:40.790Z,6.20
2018-09-14T14:46:10.525Z,5.20
2018-09-14T14:48:40.911Z,7.40
2018-09-14T14:51:11.193Z,5.60
2018-09-14T14:53:40.951Z,7.00
2018-09-14T14:56:12.381Z,4.00
2018-09-14T14:58:43.010Z,7.00
2018-09-14T15:01:13.481Z,7.80
2018-09-14T15:03:43.590Z,7.80
2018-09-14T15:06:14.208Z,6.40
2018-09-14T15:08:48.867Z,3.60
2018-09-14T15:11:20.621Z,6.20
2018-09-14T15:13:53.415Z,7.00
2018-09-14T15:16:23.422Z,7.00
2018-09-14T15:18:55.093Z,6.80
2018-09-14T15:21:25.395Z,5.20
2018-09-14T15:23:55.969Z,7.00
2018-09-14T15:26:25.784Z,8.60
2018-09-14T15:29:00.090Z,7.00
2018-09-14T15:31:32.280Z,7.00
2018-09-14T15:34:03.720Z,8.60
2018-09-14T15:36:34.800Z,6.60
2018-09-14T15:39:06.137Z,6.00
2018-09-14T15:41:37.885Z,7.00
2018-09-14T15:44:08.128Z,6.20
2018-09-14T15:46:37.998Z,8.60
2018-09-14T15:49:08.559Z,6.40
2018-09-14T15:51:38.179Z,6.60
2018-09-14T15:54:07.948Z,7.00
2018-09-14T15:56:37.456Z,7.80
2018-09-14T15:59:07.787Z,9.00
2018-09-14T16:01:37.580Z,7.00
2018-09-14T16:04:09.221Z,6.00
2018-09-14T16:06:39.319Z,7.40
2018-09-14T16:09:11.205Z,5.60
2018-09-14T16:11:41.255Z,6.00
2018-09-14T16:14:11.934Z,6.00
2018-09-14T16:16:41.593Z,6.20
2018-09-14T16:19:11.554Z,6.60
2018-09-14T16:21:41.141Z,6.40
2018-09-14T16:24:11.209Z,9.00
2018-09-14T16:26:45.094Z,4.40
2018-09-14T16:29:17.652Z,7.40
2018-09-14T16:31:47.957Z,6.40
2018-09-14T16:34:17.794Z,8.20
2018-09-14T16:36:47.330Z,7.00
2018-09-14T16:39:18.729Z,8.60
2018-09-14T16:41:48.616Z,6.20
2018-09-14T16:44:19.092Z,6.80
2018-09-14T16:46:48.970Z,7.80
2018-09-14T16:49:19.678Z,8.20
2018-09-14T16:51:50.909Z,8.20
2018-09-14T16:54:21.806Z,7.00
2018-09-14T16:56:51.995Z,8.20
2018-09-14T16:59:22.451Z,9.00
2018-09-14T17:01:53.080Z,3.00
2018-09-14T17:04:23.397Z,8.20
2018-09-14T17:06:56.062Z,8.00
2018-09-14T17:09:26.841Z,9.40
2018-09-14T17:11:56.789Z,6.40
2018-09-14T17:14:26.344Z,7.20
2018-09-14T17:16:55.908Z,6.40
2018-09-14T17:19:27.616Z,6.20
2018-09-14T17:21:59.007Z,6.80
2018-09-14T17:24:32.547Z,7.00
2018-09-14T17:27:05.528Z,7.00
2018-09-14T17:29:35.935Z,6.60
2018-09-14T17:32:05.973Z,7.40
2018-09-14T17:34:36.550Z,7.20
2018-09-14T17:37:06.910Z,7.40
2018-09-14T17:39:37.365Z,6.00
2018-09-14T17:42:07.232Z,6.40
2018-09-14T17:44:37.643Z,6.20
2018-09-14T17:47:10.665Z,5.20
2018-09-14T17:49:40.677Z,7.00
2018-09-14T17:52:12.916Z,6.20
2018-09-14T17:54:44.520Z,4.40
2018-09-14T17:57:17.248Z,6.00
2018-09-14T17:59:47.260Z,7.40
2018-09-14T18:02:20.049Z,7.00
2018-09-14T18:04:49.565Z,5.20
2018-09-14T18:07:20.258Z,6.00
2018-09-14T18:09:51.432Z,6.00
2018-09-14T18:12:21.689Z,6.40
2018-09-14T18:14:51.800Z,6.20
2018-09-14T18:17:21.431Z,6.00
2018-09-14T18:19:51.981Z,6.40
2018-09-14T18:22:22.398Z,6.00
2018-09-14T18:24:54.444Z,6.00
2018-09-14T18:27:25.225Z,8.20
2018-09-14T18:29:55.798Z,4.80
2018-09-14T18:32:25.730Z,6.00
2018-09-14T18:34:55.606Z,6.00
2018-09-14T18:37:25.278Z,6.00
2018-09-14T18:39:55.669Z,4.40
2018-09-14T18:42:26.657Z,4.40
2018-09-14T18:44:56.513Z,6.40
2018-09-14T18:47:28.550Z,6.40
2018-09-14T18:49:59.212Z,5.60
2018-09-14T18:52:28.701Z,4.00
2018-09-14T18:54:58.545Z,6.00
2018-09-14T18:57:28.744Z,5.20
2018-09-14T19:00:01.091Z,4.00
2018-09-14T19:02:31.425Z,4.40
2018-09-14T19:05:03.268Z,7.00
2018-09-14T19:07:33.253Z,6.00
2018-09-14T19:10:03.004Z,4.00
2018-09-14T19:12:34.570Z,5.60
2018-09-14T19:15:05.683Z,6.00
2018-09-14T19:17:35.957Z,4.00
2018-09-14T19:20:06.490Z,4.80
2018-09-14T19:22:38.087Z,6.00
2018-09-14T19:25:09.263Z,6.20
2018-09-14T19:27:39.711Z,6.00
2018-09-14T19:30:10.345Z,6.00
2018-09-14T19:32:40.970Z,6.00
2018-09-14T19:35:13.346Z,6.00
2018-09-14T19:37:44.074Z,6.00
2018-09-14T19:40:14.054Z,4.00
2018-09-14T19:42:44.945Z,3.20
2018-09-14T19:45:18.284Z,4.80
2018-09-14T19:47:48.294Z,4.00
2018-09-14T19:50:18.996Z,4.80
2018-09-14T19:52:50.266Z,5.20
2018-09-14T19:55:20.919Z,4.00
2018-09-14T19:57:53.186Z,4.00
2018-09-14T20:00:23.399Z,4.00
2018-09-14T20:02:54.316Z,5.60
2018-09-14T20:05:25.254Z,6.00
2018-09-14T20:08:57.909Z,6.00
2018-09-14T20:11:28.763Z,4.80
2018-09-14T20:14:01.313Z,4.00
2018-09-14T20:16:35.112Z,5.20
2018-09-14T20:19:06.804Z,6.00
2018-09-14T20:21:40.089Z,4.00
2018-09-14T20:24:10.285Z,4.00
2018-09-14T20:26:40.764Z,3.40
2018-09-14T20:29:13.182Z,4.00
2018-09-14T20:31:44.197Z,6.00
2018-09-14T20:34:14.166Z,4.40
2018-09-14T20:36:44.301Z,4.00
2018-09-14T20:39:14.305Z,6.00
2018-09-14T20:41:45.010Z,6.00
2018-09-14T20:44:14.662Z,6.00
2018-09-14T20:46:50.388Z,4.40
2018-09-14T20:49:21.228Z,6.00
2018-09-14T20:51:51.297Z,4.00
2018-09-14T20:54:24.424Z,4.40
2018-09-14T20:56:55.071Z,6.00
2018-09-14T20:59:25.248Z,5.20
2018-09-14T21:01:55.899Z,4.40
2018-09-14T21:04:25.673Z,4.00
2018-09-14T21:06:57.606Z,4.00
2018-09-14T21:09:28.012Z,4.40
2018-09-14T21:11:57.866Z,5.60
2018-09-14T21:14:27.714Z,5.60
2018-09-14T21:16:58.151Z,3.00
2018-09-14T21:19:30.867Z,5.60
2018-09-14T21:22:00.676Z,0.00
2018-09-14T21:24:38.022Z,5.20
2018-09-14T21:27:08.758Z,4.40
2018-09-14T21:29:38.847Z,3.80
2018-09-14T21:32:08.738Z,4.00
2018-09-14T21:34:38.437Z,4.80
2018-09-14T21:37:09.094Z,4.00
2018-09-14T21:39:39.361Z,4.00
2018-09-14T21:42:11.390Z,2.60
2018-09-14T21:44:42.286Z,1.80
2018-09-14T21:47:15.723Z,4.00
2018-09-14T21:49:46.169Z,4.80
2018-09-14T21:52:17.361Z,4.00
2018-09-14T21:54:50.162Z,6.00
2018-09-14T21:57:20.411Z,3.80
2018-09-14T21:59:50.713Z,5.20
2018-09-14T22:02:20.643Z,4.00
2018-09-14T22:04:52.122Z,4.00
2018-09-14T22:07:22.819Z,3.00
2018-09-14T22:09:53.338Z,3.80
2018-09-14T22:12:24.134Z,6.00
2018-09-14T22:14:55.058Z,4.00
2018-09-14T22:17:26.408Z,5.20
2018-09-14T22:19:56.664Z,3.00
2018-09-14T22:22:26.570Z,3.80
2018-09-14T22:24:57.261Z,4.00
2018-09-14T22:27:27.221Z,6.00
2018-09-14T22:29:59.094Z,3.00
2018-09-14T22:32:29.136Z,3.60
2018-09-14T22:35:00.190Z,4.00
2018-09-14T22:37:29.836Z,5.20
2018-09-14T22:39:59.752Z,4.20
2018-09-14T22:42:33.139Z,3.80
2018-09-14T22:45:03.892Z,4.00
2018-09-14T22:47:34.545Z,3.60
2018-09-14T22:50:04.703Z,3.00
2018-09-14T22:52:35.077Z,4.00
2018-09-14T22:55:06.681Z,3.00
2018-09-14T22:57:36.381Z,3.40
2018-09-14T23:00:06.054Z,4.00
2018-09-14T23:02:36.156Z,3.60
2018-09-14T23:05:05.811Z,3.00
2018-09-14T23:07:35.576Z,1.80
2018-09-14T23:10:05.846Z,4.40
2018-09-14T23:12:35.509Z,4.00
2018-09-14T23:15:06.331Z,3.00
2018-09-14T23:17:35.939Z,4.00
2018-09-14T23:20:05.531Z,3.00
2018-09-14T23:22:35.644Z,4.00
2018-09-14T23:25:05.561Z,5.20
2018-09-14T23:27:36.855Z,4.00
2018-09-14T23:30:08.138Z,4.80
2018-09-14T23:32:38.093Z,3.00
2018-09-14T23:35:08.383Z,4.00
2018-09-14T23:37:41.185Z,3.00
2018-09-14T23:40:11.260Z,2.60
2018-09-14T23:42:40.881Z,3.20
2018-09-14T23:45:10.563Z,3.80
2018-09-14T23:47:40.097Z,4.00
2018-09-14T23:50:09.804Z,4.00
2018-09-14T23:52:39.535Z,4.00
2018-09-14T23:55:09.758Z,3.20
2018-09-14T23:57:39.776Z,3.00
